Time;durP1;ratioP1;P1;durP2;ratioP2;P2;SDS_P1;SDS_P2;PMS_P1;PMS_P2;Temp;Humidity;BMP_temperature;BMP_pressure;BME280_temperature;BME280_humidity;BME280_pressure;Samples;Min_cycle;Max_cycle;Signal;HPM_P1;HPM_P2
2022/11/17 00:00:41;;;;;;;5.67;3.20;;;3.60;99.90;;;;;;4754368;30;20208;-81
2022/11/17 00:03:16;;;;;;;4.90;3.37;;;3.50;99.90;;;;;;4752893;30;20221;-82
2022/11/17 00:05:43;;;;;;;4.80;3.23;;;3.50;99.90;;;;;;4753537;30;20206;-82
2022/11/17 00:08:11;;;;;;;4.37;3.20;;;3.50;99.90;;;;;;4753903;30;20264;-82
2022/11/17 00:10:38;;;;;;;4.47;3.30;;;3.50;99.90;;;;;;4753826;30;20603;-83
2022/11/17 00:15:56;;;;;;;4.47;2.97;;;3.60;99.90;;;;;;4752062;30;20210;-86
2022/11/17 00:21:22;;;;;;;4.93;3.30;;;3.50;99.90;;;;;;4752504;30;20209;-81
2022/11/17 00:23:50;;;;;;;4.40;3.20;;;3.50;99.90;;;;;;4753393;30;20557;-84
2022/11/17 00:26:26;;;;;;;4.53;3.17;;;3.50;99.90;;;;;;4752100;30;20578;-81
2022/11/17 00:29:08;;;;;;;4.30;3.13;;;3.50;99.90;;;;;;4752342;30;20221;-81
2022/11/17 00:34:32;;;;;;;4.07;2.80;;;3.40;99.90;;;;;;4751897;30;20237;-80
2022/11/17 00:36:59;;;;;;;3.73;2.70;;;3.60;99.90;;;;;;4752024;30;20216;-84
2022/11/17 00:39:30;;;;;;;3.70;2.70;;;3.50;99.90;;;;;;4737310;30;20262;-80
2022/11/17 00:41:57;;;;;;;3.53;2.70;;;3.30;99.90;;;;;;4753370;30;20198;-82
2022/11/17 00:44:25;;;;;;;3.30;2.63;;;3.40;99.90;;;;;;4752457;30;20308;-85
2022/11/17 00:46:52;;;;;;;4.37;2.70;;;3.30;99.90;;;;;;4751939;30;20572;-80
2022/11/17 00:49:24;;;;;;;3.57;2.90;;;3.20;99.90;;;;;;4751588;30;20229;-80
2022/11/17 00:51:53;;;;;;;3.57;2.60;;;3.20;99.90;;;;;;4751710;30;20695;-79
2022/11/17 00:54:21;;;;;;;3.23;2.63;;;3.20;99.90;;;;;;4777839;30;20698;-83
2022/11/17 00:56:49;;;;;;;3.83;2.67;;;3.20;99.90;;;;;;4788483;29;20319;-88
2022/11/17 00:59:16;;;;;;;5.70;3.20;;;3.10;99.90;;;;;;4788387;29;20257;-79
2022/11/17 01:01:50;;;;;;;9.67;3.57;;;3.20;99.90;;;;;;4772692;30;20205;-82
2022/11/17 01:04:21;;;;;;;3.37;2.40;;;3.10;99.90;;;;;;4788408;29;20196;-83
2022/11/17 01:06:57;;;;;;;3.80;2.30;;;3.00;99.90;;;;;;4772831;30;20207;-78
2022/11/17 01:09:25;;;;;;;3.17;2.57;;;3.10;99.90;;;;;;4772553;30;20232;-83
2022/11/17 01:11:53;;;;;;;7.30;2.83;;;3.00;99.90;;;;;;4772757;30;20200;-86
2022/11/17 01:14:31;;;;;;;4.50;2.40;;;3.10;99.90;;;;;;4772049;29;20586;-78
2022/11/17 01:17:06;;;;;;;3.07;2.50;;;3.00;99.90;;;;;;4788165;29;20259;-84
2022/11/17 01:19:37;;;;;;;3.53;2.50;;;2.90;99.90;;;;;;4788386;30;20199;-81
2022/11/17 01:22:04;;;;;;;4.23;2.90;;;2.90;99.90;;;;;;4771896;30;20209;-78
2022/11/17 01:24:34;;;;;;;3.50;2.87;;;3.00;99.90;;;;;;4771919;29;20212;-78
2022/11/17 01:27:36;;;;;;;4.90;3.07;;;2.90;99.90;;;;;;4772483;30;20192;-82
2022/11/17 01:30:04;;;;;;;4.40;2.90;;;2.80;99.90;;;;;;4773007;29;20224;-84
2022/11/17 01:32:31;;;;;;;3.67;2.50;;;2.80;99.90;;;;;;4757232;30;20261;-87
2022/11/17 01:35:01;;;;;;;3.60;2.60;;;2.70;99.90;;;;;;4758234;30;20296;-86
2022/11/17 01:37:29;;;;;;;7.17;3.20;;;2.80;99.90;;;;;;4772056;30;20213;-85
2022/11/17 01:39:56;;;;;;;3.97;2.80;;;2.90;99.90;;;;;;4788030;29;20200;-87
2022/11/17 01:42:27;;;;;;;3.53;2.83;;;2.80;99.90;;;;;;4772074;30;20235;-86
2022/11/17 01:45:04;;;;;;;4.40;2.80;;;2.80;99.90;;;;;;4771825;30;20215;-84
2022/11/17 01:47:46;;;;;;;5.73;2.90;;;2.70;99.90;;;;;;4788315;29;20200;-86
2022/11/17 01:50:29;;;;;;;3.70;3.10;;;2.70;99.90;;;;;;4786776;30;20204;-85
2022/11/17 01:52:59;;;;;;;3.80;2.77;;;2.60;99.90;;;;;;4771839;30;20348;-82
2022/11/17 01:55:34;;;;;;;4.77;3.10;;;2.60;99.90;;;;;;4772123;30;20204;-78
2022/11/17 01:58:07;;;;;;;4.07;2.73;;;2.50;99.90;;;;;;4757092;30;20238;-87
2022/11/17 02:00:37;;;;;;;4.00;2.93;;;2.60;99.90;;;;;;4787808;29;20196;-83
2022/11/17 02:03:14;;;;;;;5.83;3.03;;;2.70;99.90;;;;;;4787937;29;20235;-86
2022/11/17 02:05:54;;;;;;;3.67;2.77;;;2.60;99.90;;;;;;4771680;30;20205;-83
2022/11/17 02:08:35;;;;;;;3.13;2.60;;;2.60;99.90;;;;;;4772330;30;20223;-79
2022/11/17 02:11:07;;;;;;;3.00;2.70;;;2.60;99.90;;;;;;4788056;30;20208;-77
2022/11/17 02:13:40;;;;;;;4.83;3.47;;;2.70;99.90;;;;;;4787655;29;20277;-82
2022/11/17 02:16:19;;;;;;;3.53;2.60;;;2.60;99.90;;;;;;4771276;30;20255;-82
2022/11/17 02:18:50;;;;;;;4.20;3.00;;;2.60;99.90;;;;;;4771728;30;20205;-85
2022/11/17 02:21:32;;;;;;;4.83;3.13;;;2.50;99.90;;;;;;4786322;29;20279;-84
2022/11/17 02:24:24;;;;;;;3.70;2.47;;;2.50;99.90;;;;;;4771332;30;20208;-83
2022/11/17 02:27:27;;;;;;;4.77;3.27;;;2.60;99.90;;;;;;4773143;30;20222;-78
2022/11/17 02:30:04;;;;;;;3.83;2.90;;;2.50;99.90;;;;;;4771831;30;20632;-86
2022/11/17 02:32:46;;;;;;;4.23;2.90;;;2.50;99.90;;;;;;4771573;30;20294;-86
2022/11/17 02:35:42;;;;;;;4.43;2.97;;;2.50;99.90;;;;;;4786177;30;20204;-87
2022/11/17 02:38:22;;;;;;;3.70;2.80;;;2.50;99.90;;;;;;4771766;30;20324;-90
2022/11/17 02:41:12;;;;;;;2.77;2.43;;;2.50;99.90;;;;;;4786763;29;20301;-88
2022/11/17 02:44:03;;;;;;;4.43;2.90;;;2.60;99.90;;;;;;4775071;30;20662;-84
2022/11/17 02:46:44;;;;;;;6.80;3.00;;;2.50;99.90;;;;;;4774806;30;20541;-88
2022/11/17 02:49:21;;;;;;;4.43;2.77;;;2.60;99.90;;;;;;4790501;29;20312;-81
2022/11/17 02:51:55;;;;;;;3.37;2.60;;;2.70;99.90;;;;;;4791223;30;20205;-87
2022/11/17 02:54:27;;;;;;;5.23;3.10;;;2.60;99.90;;;;;;4774420;30;20269;-85
2022/11/17 02:56:54;;;;;;;3.87;2.90;;;2.60;99.90;;;;;;4774572;30;20292;-83
2022/11/17 02:59:34;;;;;;;3.90;2.77;;;2.60;99.90;;;;;;4774220;30;20689;-79
2022/11/17 03:02:39;;;;;;;4.27;2.90;;;2.50;99.90;;;;;;4790377;29;20670;-79
2022/11/17 03:05:34;;;;;;;3.20;2.47;;;2.50;99.90;;;;;;4775081;30;20218;-79
2022/11/17 03:08:35;;;;;;;3.87;2.83;;;2.50;99.90;;;;;;4790595;30;20192;-79
2022/11/17 03:11:06;;;;;;;4.20;2.70;;;2.40;99.90;;;;;;4774063;30;20666;-88
2022/11/17 03:13:48;;;;;;;3.07;2.53;;;2.50;99.90;;;;;;4790181;29;20196;-84
2022/11/17 03:16:34;;;;;;;3.20;2.70;;;2.60;99.90;;;;;;4790183;29;20284;-85
2022/11/17 03:19:16;;;;;;;3.60;2.90;;;2.50;99.90;;;;;;4759941;30;20218;-80
2022/11/17 03:22:13;;;;;;;4.40;3.00;;;2.50;99.90;;;;;;4790549;30;20188;-80
2022/11/17 03:25:05;;;;;;;4.20;2.80;;;2.50;99.90;;;;;;4755433;30;20553;-80
2022/11/17 03:28:08;;;;;;;3.83;2.80;;;2.50;99.90;;;;;;4759338;30;20281;-86
2022/11/17 03:30:44;;;;;;;3.67;2.70;;;2.60;99.90;;;;;;4760234;29;20576;-85
2022/11/17 03:33:28;;;;;;;3.17;2.70;;;2.50;99.90;;;;;;4789927;30;20670;-88
2022/11/17 03:36:03;;;;;;;3.47;2.80;;;2.60;99.90;;;;;;4773476;30;20304;-78
2022/11/17 03:38:40;;;;;;;3.10;2.77;;;2.40;99.90;;;;;;4790295;30;20278;-88
2022/11/17 03:41:13;;;;;;;5.17;3.00;;;2.50;99.90;;;;;;4790102;29;20208;-85
2022/11/17 03:43:42;;;;;;;6.33;3.13;;;2.40;99.90;;;;;;4789924;30;20192;-85
2022/11/17 03:46:14;;;;;;;5.03;3.00;;;2.50;99.90;;;;;;4789417;29;20208;-84
2022/11/17 03:48:47;;;;;;;4.23;2.80;;;2.50;99.90;;;;;;4789626;30;20215;-84
2022/11/17 03:51:25;;;;;;;5.47;2.93;;;2.40;99.90;;;;;;4790067;29;20196;-81
2022/11/17 03:53:56;;;;;;;4.43;3.00;;;2.40;99.90;;;;;;4784310;29;20240;-80
2022/11/17 03:56:35;;;;;;;4.07;3.00;;;2.30;99.90;;;;;;4772130;30;20233;-85
2022/11/17 03:59:26;;;;;;;3.97;2.90;;;2.50;99.90;;;;;;4771530;30;20207;-87
2022/11/17 04:01:57;;;;;;;3.87;2.77;;;2.50;99.90;;;;;;4765072;30;20559;-79
2022/11/17 04:05:04;;;;;;;4.23;2.87;;;2.40;99.90;;;;;;4755940;30;20215;-81
2022/11/17 04:07:22;;;;;;;3.77;2.90;;;2.50;99.90;;;;;;4770170;30;20204;-79
2022/11/17 04:10:16;;;;;;;3.97;2.63;;;2.40;99.90;;;;;;4770652;30;20332;-86
2022/11/17 04:15:57;;;;;;;4.50;2.90;;;2.30;99.90;;;;;;4758383;30;20205;-84
2022/11/17 04:18:31;;;;;;;4.40;2.67;;;2.40;99.90;;;;;;4755762;30;20212;-87
2022/11/17 04:21:02;;;;;;;4.30;2.53;;;2.30;99.90;;;;;;4771351;30;20632;-85
2022/11/17 04:23:42;;;;;;;4.23;2.80;;;2.30;99.90;;;;;;4771385;30;20609;-82
2022/11/17 04:29:06;;;;;;;4.70;2.90;;;2.30;99.90;;;;;;4771358;30;20322;-85
2022/11/17 04:31:51;;;;;;;5.53;2.57;;;2.40;99.90;;;;;;4770003;30;20285;-81
2022/11/17 04:34:28;;;;;;;5.13;3.03;;;2.40;99.90;;;;;;4771063;30;20197;-77
2022/11/17 04:36:58;;;;;;;4.63;2.57;;;2.40;99.90;;;;;;4769752;30;20208;-88
2022/11/17 04:39:43;;;;;;;6.47;3.17;;;2.50;99.90;;;;;;4769761;30;20667;-77
2022/11/17 04:42:20;;;;;;;4.43;2.70;;;2.40;99.90;;;;;;4770050;30;20220;-81
2022/11/17 04:44:47;;;;;;;3.33;2.47;;;2.30;99.90;;;;;;4769969;30;20232;-78
2022/11/17 04:47:23;;;;;;;4.37;2.47;;;2.30;99.90;;;;;;4769309;30;20610;-80
2022/11/17 04:50:02;;;;;;;4.27;2.53;;;2.40;99.90;;;;;;4770703;30;20282;-79
2022/11/17 04:52:36;;;;;;;3.50;2.70;;;2.40;99.90;;;;;;4770883;30;20212;-86
2022/11/17 04:55:07;;;;;;;3.27;2.30;;;2.40;99.90;;;;;;4769181;30;20248;-81
2022/11/17 04:57:38;;;;;;;3.87;2.57;;;2.40;99.90;;;;;;4784348;30;20221;-80
2022/11/17 05:00:10;;;;;;;3.97;2.30;;;2.30;99.90;;;;;;4769496;30;20240;-78
2022/11/17 05:02:48;;;;;;;3.17;2.33;;;2.40;99.90;;;;;;4769456;30;20610;-77
2022/11/17 05:05:25;;;;;;;4.57;2.90;;;2.40;99.90;;;;;;4770289;30;20204;-78
2022/11/17 05:08:01;;;;;;;3.30;2.13;;;2.40;99.90;;;;;;4769018;30;20208;-77
2022/11/17 05:14:00;;;;;;;3.37;2.40;;;2.30;99.90;;;;;;4770424;30;20212;-78
2022/11/17 05:19:35;;;;;;;3.50;2.13;;;2.40;99.90;;;;;;4770464;30;20196;-78
2022/11/17 05:24:59;;;;;;;3.77;2.50;;;2.30;99.90;;;;;;4770208;30;20197;-77
2022/11/17 05:27:27;;;;;;;4.73;2.40;;;2.20;99.90;;;;;;4768911;30;20220;-79
2022/11/17 05:29:57;;;;;;;4.50;2.87;;;2.10;99.90;;;;;;4754813;30;20245;-78
2022/11/17 05:32:25;;;;;;;3.80;2.80;;;2.20;99.90;;;;;;4769688;30;20200;-83
2022/11/17 05:34:51;;;;;;;3.53;2.20;;;2.30;99.90;;;;;;4769457;30;20204;-84
2022/11/17 05:37:18;;;;;;;3.60;2.13;;;2.20;99.90;;;;;;4769539;30;20209;-82
2022/11/17 05:39:45;;;;;;;4.20;2.63;;;2.20;99.90;;;;;;4770545;30;20533;-83
2022/11/17 05:42:12;;;;;;;2.83;2.37;;;2.30;99.90;;;;;;4783783;30;20295;-82
2022/11/17 05:44:39;;;;;;;2.93;2.20;;;2.30;99.90;;;;;;4769354;30;20228;-84
2022/11/17 05:47:06;;;;;;;4.80;2.50;;;2.40;99.90;;;;;;4769404;30;20212;-84
2022/11/17 05:49:33;;;;;;;2.53;2.30;;;2.30;99.90;;;;;;4768676;30;20265;-82
2022/11/17 05:52:00;;;;;;;4.20;2.40;;;2.20;99.90;;;;;;4768959;30;20531;-82
2022/11/17 05:54:27;;;;;;;2.77;2.43;;;2.20;99.90;;;;;;4754369;30;20603;-85
2022/11/17 05:57:02;;;;;;;3.07;2.43;;;2.30;99.90;;;;;;4754079;30;20229;-79
2022/11/17 05:59:34;;;;;;;3.00;2.50;;;2.20;99.90;;;;;;4783729;30;20212;-85
2022/11/17 06:02:35;;;;;;;4.03;2.30;;;2.20;99.90;;;;;;4769864;30;20211;-87
2022/11/17 06:05:06;;;;;;;2.90;2.10;;;2.20;99.90;;;;;;4768362;30;20258;-83
2022/11/17 06:07:35;;;;;;;4.57;2.40;;;2.20;99.90;;;;;;4770024;30;20694;-82
2022/11/17 06:10:07;;;;;;;3.27;2.40;;;2.30;99.90;;;;;;4768680;30;20236;-79
2022/11/17 06:12:37;;;;;;;2.90;2.30;;;2.30;99.90;;;;;;4769068;30;20205;-85
2022/11/17 06:15:05;;;;;;;3.17;2.20;;;2.30;99.90;;;;;;4768746;30;20321;-81
2022/11/17 06:17:38;;;;;;;2.67;2.10;;;2.20;99.90;;;;;;4772328;30;20581;-85
2022/11/17 06:20:14;;;;;;;2.80;2.30;;;2.30;99.90;;;;;;4773481;30;20647;-85
2022/11/17 06:22:41;;;;;;;3.47;2.50;;;2.30;99.90;;;;;;4773441;30;20280;-82
2022/11/17 06:25:27;;;;;;;3.03;2.17;;;2.30;99.90;;;;;;4758013;30;20189;-79
2022/11/17 06:28:06;;;;;;;3.43;2.40;;;2.30;99.90;;;;;;4772008;30;20216;-78
2022/11/17 06:30:38;;;;;;;2.93;2.40;;;2.20;99.90;;;;;;4773668;30;20232;-80
2022/11/17 06:33:11;;;;;;;3.47;2.50;;;2.20;99.90;;;;;;4772968;30;20223;-78
2022/11/17 06:35:43;;;;;;;3.17;2.53;;;2.10;99.90;;;;;;4771632;30;20539;-82
2022/11/17 06:38:13;;;;;;;3.23;2.47;;;2.20;99.90;;;;;;4786680;30;20205;-81
2022/11/17 06:40:40;;;;;;;5.60;2.73;;;2.20;99.90;;;;;;4772449;30;20201;-81
2022/11/17 06:43:08;;;;;;;3.23;2.43;;;2.20;99.90;;;;;;4786749;29;20240;-81
2022/11/17 06:45:36;;;;;;;3.33;2.40;;;2.10;99.90;;;;;;4772793;30;20201;-82
2022/11/17 06:48:04;;;;;;;3.13;2.40;;;2.10;99.90;;;;;;4772849;30;20197;-82
2022/11/17 06:50:47;;;;;;;3.80;2.53;;;2.20;99.90;;;;;;4771403;30;20236;-84
2022/11/17 06:53:14;;;;;;;2.97;2.10;;;2.20;99.90;;;;;;4771485;30;20320;-82
2022/11/17 06:55:44;;;;;;;4.27;2.37;;;2.10;99.90;;;;;;4771471;30;20235;-84
2022/11/17 06:58:11;;;;;;;2.80;2.20;;;2.10;99.90;;;;;;4786198;29;20586;-81
2022/11/17 07:00:38;;;;;;;3.30;2.20;;;2.00;99.90;;;;;;4771156;30;20606;-82
2022/11/17 07:03:08;;;;;;;3.83;2.43;;;2.00;99.90;;;;;;4772871;30;20286;-82
2022/11/17 07:05:37;;;;;;;2.30;2.00;;;2.10;99.90;;;;;;4786011;30;20309;-82
2022/11/17 07:08:07;;;;;;;3.23;2.50;;;2.00;99.90;;;;;;4772193;30;20205;-81
2022/11/17 07:10:35;;;;;;;4.07;2.60;;;1.90;99.90;;;;;;4771487;30;20319;-81
2022/11/17 07:13:02;;;;;;;3.83;2.53;;;1.90;99.90;;;;;;4786377;29;20220;-80
2022/11/17 07:15:30;;;;;;;3.53;2.70;;;1.90;99.90;;;;;;4771079;30;20220;-80
2022/11/17 07:17:57;;;;;;;5.17;3.10;;;1.90;99.90;;;;;;4786099;29;20201;-81
2022/11/17 07:20:24;;;;;;;4.07;2.83;;;1.80;99.90;;;;;;4771374;30;20208;-81
2022/11/17 07:22:56;;;;;;;3.43;2.83;;;1.90;99.90;;;;;;4771210;30;20224;-81
2022/11/17 07:25:23;;;;;;;5.50;2.87;;;1.80;99.90;;;;;;4771331;30;20200;-81
2022/11/17 07:27:58;;;;;;;4.90;3.10;;;1.90;99.90;;;;;;4785811;29;20205;-81
2022/11/17 07:30:25;;;;;;;4.30;3.17;;;1.90;99.90;;;;;;4772478;30;20228;-81
2022/11/17 07:32:52;;;;;;;7.07;3.50;;;1.80;99.90;;;;;;4770933;30;20203;-81
2022/11/17 07:35:20;;;;;;;5.60;3.47;;;1.90;99.90;;;;;;4785298;30;20213;-82
2022/11/17 07:37:47;;;;;;;4.97;3.43;;;1.70;99.90;;;;;;4772172;30;20271;-81
2022/11/17 07:40:14;;;;;;;4.23;3.20;;;1.80;99.90;;;;;;4770607;30;20204;-83
2022/11/17 07:42:46;;;;;;;5.67;3.20;;;1.80;99.90;;;;;;4785438;29;20209;-81
2022/11/17 07:45:14;;;;;;;4.33;3.17;;;1.80;99.90;;;;;;4771624;30;20599;-81
2022/11/17 07:47:41;;;;;;;4.70;3.37;;;1.80;99.90;;;;;;4772028;30;20677;-80
2022/11/17 07:50:08;;;;;;;5.10;3.40;;;1.90;99.90;;;;;;4770484;30;20632;-80
2022/11/17 07:52:35;;;;;;;5.30;3.30;;;1.90;99.90;;;;;;4771440;30;20235;-81
2022/11/17 07:55:07;;;;;;;4.90;3.30;;;1.90;99.90;;;;;;4753967;30;20272;-80
2022/11/17 07:57:35;;;;;;;5.57;3.47;;;1.90;99.90;;;;;;4752573;30;20279;-78
2022/11/17 08:00:02;;;;;;;9.13;4.03;;;2.00;99.90;;;;;;4752798;30;20274;-77
2022/11/17 08:02:30;;;;;;;5.33;3.53;;;2.10;99.90;;;;;;4752300;30;20631;-82
2022/11/17 08:04:59;;;;;;;8.87;3.77;;;2.10;99.90;;;;;;4752965;30;20224;-81
2022/11/17 08:07:26;;;;;;;4.53;3.37;;;1.90;99.90;;;;;;4753285;30;20190;-78
2022/11/17 08:09:56;;;;;;;5.40;3.53;;;2.00;99.90;;;;;;4751780;30;20584;-78
2022/11/17 08:12:36;;;;;;;6.30;3.53;;;1.90;99.90;;;;;;4739168;30;20212;-78
2022/11/17 08:15:05;;;;;;;5.87;3.90;;;1.80;99.90;;;;;;4751860;30;20206;-79
2022/11/17 08:17:33;;;;;;;8.70;3.90;;;1.70;99.90;;;;;;4751842;30;20298;-76
2022/11/17 08:19:59;;;;;;;5.50;3.60;;;1.70;99.90;;;;;;4752501;30;20214;-78
2022/11/17 08:22:27;;;;;;;6.30;3.53;;;1.70;99.90;;;;;;4737644;30;20209;-77
2022/11/17 08:24:54;;;;;;;4.63;3.47;;;1.90;99.90;;;;;;4766601;30;20218;-76
2022/11/17 08:27:20;;;;;;;6.63;3.83;;;1.80;99.90;;;;;;4752151;30;20202;-80
2022/11/17 08:29:47;;;;;;;6.03;4.03;;;1.70;99.90;;;;;;4751879;30;20264;-81
2022/11/17 08:32:15;;;;;;;6.22;4.40;;;1.80;99.90;;;;;;4766436;30;20493;-84
2022/11/17 08:34:42;;;;;;;5.77;3.80;;;1.80;99.90;;;;;;4751903;30;20224;-80
2022/11/17 08:37:08;;;;;;;6.60;4.03;;;1.70;99.90;;;;;;4753060;30;20208;-81
2022/11/17 08:39:35;;;;;;;6.80;4.30;;;1.70;99.90;;;;;;4752669;30;20633;-82
2022/11/17 08:42:02;;;;;;;6.30;3.97;;;1.70;99.90;;;;;;4751814;30;20206;-83
2022/11/17 08:44:30;;;;;;;6.60;4.50;;;1.70;99.90;;;;;;4752744;30;20194;-80
2022/11/17 08:46:57;;;;;;;6.87;4.40;;;1.80;99.90;;;;;;4751495;30;20653;-82
2022/11/17 08:49:23;;;;;;;5.83;4.03;;;1.80;99.90;;;;;;4751654;30;20252;-81
2022/11/17 08:51:50;;;;;;;5.93;3.93;;;1.70;99.90;;;;;;4752705;30;20220;-80
2022/11/17 08:54:17;;;;;;;5.40;3.93;;;1.70;99.90;;;;;;4768237;30;20250;-82
2022/11/17 08:56:45;;;;;;;8.43;4.10;;;1.60;99.90;;;;;;4772293;30;20303;-83
2022/11/17 08:59:12;;;;;;;6.63;4.20;;;1.70;99.90;;;;;;4772082;30;20217;-81
2022/11/17 09:01:39;;;;;;;8.87;4.47;;;1.70;99.90;;;;;;4787429;29;20224;-83
2022/11/17 09:04:06;;;;;;;6.40;4.40;;;1.70;99.90;;;;;;4772356;30;20303;-81
2022/11/17 09:06:33;;;;;;;7.47;4.37;;;1.80;99.90;;;;;;4771985;30;20261;-83
2022/11/17 09:09:00;;;;;;;10.27;4.50;;;1.80;99.90;;;;;;4772486;30;20205;-84
2022/11/17 09:11:27;;;;;;;5.47;3.87;;;1.80;99.90;;;;;;4772096;30;20277;-81
2022/11/17 09:13:54;;;;;;;7.03;4.30;;;1.80;99.90;;;;;;4772224;30;20211;-84
2022/11/17 09:16:22;;;;;;;5.80;3.87;;;1.80;99.90;;;;;;4788688;29;20212;-83
2022/11/17 09:18:58;;;;;;;6.67;4.30;;;1.80;99.90;;;;;;4772382;30;20204;-82
2022/11/17 09:21:26;;;;;;;7.03;4.40;;;1.80;99.90;;;;;;4772187;30;20210;-81
2022/11/17 09:23:53;;;;;;;6.73;4.43;;;1.80;99.90;;;;;;4772085;30;20306;-80
2022/11/17 09:26:21;;;;;;;6.63;4.40;;;2.00;99.90;;;;;;4786792;30;20208;-78
2022/11/17 09:28:48;;;;;;;6.53;4.67;;;1.80;99.90;;;;;;4771913;30;20215;-80
2022/11/17 09:31:17;;;;;;;7.43;4.30;;;1.80;99.90;;;;;;4787803;30;20231;-78
2022/11/17 09:33:45;;;;;;;11.20;5.10;;;1.80;99.90;;;;;;4771856;30;20673;-77
2022/11/17 09:36:14;;;;;;;6.93;4.40;;;1.70;99.90;;;;;;4771967;30;20212;-76
2022/11/17 09:38:46;;;;;;;7.20;4.80;;;1.70;99.90;;;;;;4772306;30;20218;-78
2022/11/17 09:41:34;;;;;;;7.00;4.53;;;1.80;99.90;;;;;;4771839;30;20269;-81
2022/11/17 09:44:14;;;;;;;6.90;4.43;;;1.80;99.90;;;;;;4771936;30;20216;-79
2022/11/17 09:46:53;;;;;;;7.73;4.77;;;2.00;99.90;;;;;;4771388;30;20208;-79
2022/11/17 09:49:46;;;;;;;7.20;4.60;;;2.00;99.90;;;;;;4771670;30;20204;-76
2022/11/17 09:52:32;;;;;;;6.63;4.17;;;2.10;99.90;;;;;;4774406;30;20200;-79
2022/11/17 09:55:02;;;;;;;9.63;4.93;;;2.10;99.90;;;;;;4789881;30;20236;-82
2022/11/17 09:57:32;;;;;;;9.77;4.70;;;2.10;99.90;;;;;;4775228;30;20702;-79
2022/11/17 10:00:06;;;;;;;8.30;5.43;;;1.90;99.90;;;;;;4775415;30;20677;-86
2022/11/17 10:02:33;;;;;;;7.70;5.23;;;1.80;99.90;;;;;;4775571;30;20495;-79
2022/11/17 10:05:00;;;;;;;8.90;5.37;;;2.00;99.90;;;;;;4790241;30;20238;-79
2022/11/17 10:07:30;;;;;;;6.83;4.60;;;1.90;99.90;;;;;;4775152;30;20302;-77
2022/11/17 10:10:00;;;;;;;10.10;5.17;;;1.80;99.90;;;;;;4775426;30;20218;-80
2022/11/17 10:12:37;;;;;;;8.30;5.20;;;1.70;99.90;;;;;;4774926;30;20200;-80
2022/11/17 10:15:22;;;;;;;9.10;5.30;;;1.60;99.90;;;;;;4790729;30;20203;-80
2022/11/17 10:17:50;;;;;;;10.23;5.53;;;1.70;99.90;;;;;;4775068;30;20676;-77
2022/11/17 10:20:17;;;;;;;9.50;5.60;;;1.80;99.90;;;;;;4775167;30;20212;-80
2022/11/17 10:22:46;;;;;;;14.23;5.90;;;1.70;99.90;;;;;;4774841;30;20229;-77
2022/11/17 10:25:38;;;;;;;8.33;5.47;;;1.70;99.90;;;;;;4760045;30;20205;-78
2022/11/17 10:28:07;;;;;;;8.53;5.30;;;1.60;99.90;;;;;;4774755;30;20197;-78
2022/11/17 10:30:34;;;;;;;9.10;5.70;;;1.70;99.90;;;;;;4789573;29;20232;-76
2022/11/17 10:33:02;;;;;;;10.20;6.65;;;1.80;99.90;;;;;;4789886;29;20911;-75
2022/11/17 10:35:32;;;;;;;11.23;6.67;;;1.80;99.90;;;;;;4789931;29;20212;-77
2022/11/17 10:38:19;;;;;;;9.67;6.00;;;1.90;99.90;;;;;;4790924;29;20204;-78
2022/11/17 10:40:57;;;;;;;9.00;6.17;;;1.80;99.90;;;;;;4760926;30;20786;-78
2022/11/17 10:43:30;;;;;;;8.80;5.80;;;1.80;99.90;;;;;;4789179;29;20261;-81
2022/11/17 10:46:07;;;;;;;12.23;6.43;;;1.90;99.90;;;;;;4774442;30;20207;-76
2022/11/17 10:48:38;;;;;;;8.60;5.37;;;1.80;99.90;;;;;;4790665;29;20606;-76
2022/11/17 10:51:18;;;;;;;9.87;5.93;;;1.90;99.90;;;;;;4774201;30;20239;-80
2022/11/17 10:53:59;;;;;;;11.00;6.10;;;1.70;99.90;;;;;;4774062;30;20243;-77
2022/11/17 10:56:27;;;;;;;10.43;6.00;;;1.70;99.90;;;;;;4789036;30;20196;-73
2022/11/17 10:59:00;;;;;;;11.00;6.37;;;1.70;99.90;;;;;;4789048;30;20232;-78
2022/11/17 11:01:39;;;;;;;9.60;6.17;;;1.70;99.90;;;;;;4790024;29;20223;-78
2022/11/17 11:04:25;;;;;;;9.73;6.00;;;1.80;99.90;;;;;;4774340;30;20686;-79
2022/11/17 11:07:20;;;;;;;8.63;5.57;;;1.90;99.90;;;;;;4790115;30;20223;-78
2022/11/17 11:10:16;;;;;;;11.40;6.53;;;1.90;99.90;;;;;;4774283;30;20238;-77
2022/11/17 11:12:58;;;;;;;11.30;5.90;;;1.90;99.90;;;;;;4720059;30;20230;-76
2022/11/17 11:15:31;;;;;;;9.10;5.37;;;2.00;99.90;;;;;;4719921;30;20218;-76
2022/11/17 11:17:59;;;;;;;9.70;5.50;;;1.80;99.90;;;;;;4734575;30;20351;-78
2022/11/17 11:20:39;;;;;;;10.97;6.27;;;1.80;99.90;;;;;;4734729;30;20211;-78
2022/11/17 11:23:15;;;;;;;8.87;5.77;;;2.00;99.90;;;;;;4720085;30;20244;-79
2022/11/17 11:26:07;;;;;;;8.50;5.60;;;2.00;99.90;;;;;;4720133;30;20210;-79
2022/11/17 11:28:41;;;;;;;10.30;6.00;;;2.10;99.90;;;;;;4734489;30;20305;-77
2022/11/17 11:31:19;;;;;;;8.90;5.87;;;2.00;99.90;;;;;;4734480;30;20382;-79
2022/11/17 11:34:00;;;;;;;9.07;5.37;;;2.10;99.90;;;;;;4734547;30;20198;-80
2022/11/17 11:36:45;;;;;;;8.17;5.40;;;2.30;99.90;;;;;;4719803;30;20245;-75
2022/11/17 11:39:29;;;;;;;8.23;5.37;;;2.20;99.90;;;;;;4719900;30;20222;-74
2022/11/17 11:42:15;;;;;;;8.40;5.20;;;2.10;99.90;;;;;;4719549;30;20221;-75
2022/11/17 11:45:00;;;;;;;7.57;5.17;;;2.10;99.90;;;;;;4719717;30;20214;-80
2022/11/17 11:47:51;;;;;;;9.50;5.63;;;2.20;99.90;;;;;;4734072;30;20217;-77
2022/11/17 11:50:22;;;;;;;8.10;5.33;;;2.00;99.90;;;;;;4773429;30;20572;-90
2022/11/17 11:53:10;;;;;;;8.03;5.47;;;2.00;99.90;;;;;;4775743;30;20243;-88
2022/11/17 11:55:39;;;;;;;9.67;5.80;;;2.20;99.90;;;;;;4774102;30;20663;-71
2022/11/17 11:58:23;;;;;;;9.20;5.70;;;2.20;99.90;;;;;;4789971;30;20837;-72
2022/11/17 12:00:54;;;;;;;9.90;5.73;;;2.30;99.90;;;;;;4792442;29;20204;-76
2022/11/17 12:03:27;;;;;;;8.33;5.60;;;2.40;99.90;;;;;;4773844;30;20212;-78
2022/11/17 12:06:42;;;;;;;7.73;4.90;;;2.50;99.90;;;;;;4789339;29;20201;-77
2022/11/17 12:09:11;;;;;;;7.50;5.00;;;2.40;99.90;;;;;;4773636;30;20223;-78
2022/11/17 12:11:59;;;;;;;7.93;5.03;;;2.40;99.90;;;;;;4773073;29;20228;-82
2022/11/17 12:14:31;;;;;;;7.33;5.20;;;2.40;99.90;;;;;;4772291;30;20200;-75
2022/11/17 12:17:13;;;;;;;7.87;5.10;;;2.30;99.90;;;;;;4787610;29;20204;-79
2022/11/17 12:19:43;;;;;;;9.17;5.30;;;2.30;99.90;;;;;;4772762;30;20231;-76
2022/11/17 12:22:27;;;;;;;9.43;4.93;;;2.30;99.90;;;;;;4772957;30;20204;-74
2022/11/17 12:25:13;;;;;;;7.37;5.00;;;2.20;99.90;;;;;;4773072;30;20205;-78
2022/11/17 12:27:44;;;;;;;9.30;5.00;;;2.20;99.90;;;;;;4789065;30;20690;-74
2022/11/17 12:30:29;;;;;;;9.37;5.70;;;2.30;99.90;;;;;;4772889;30;20208;-76
2022/11/17 12:33:02;;;;;;;10.57;6.23;;;2.20;99.90;;;;;;4773220;30;20208;-84
2022/11/17 12:35:33;;;;;;;11.50;5.70;;;2.40;99.90;;;;;;4771029;30;20640;-86
2022/11/17 12:38:15;;;;;;;10.23;6.20;;;2.40;99.90;;;;;;4788896;30;20211;-84
2022/11/17 12:40:50;;;;;;;9.87;5.40;;;2.40;99.90;;;;;;4758126;30;20212;-84
2022/11/17 12:43:25;;;;;;;9.60;5.70;;;2.30;99.90;;;;;;4772378;30;20658;-85
2022/11/17 12:45:52;;;;;;;9.73;5.43;;;2.40;99.90;;;;;;4787445;30;20207;-79
2022/11/17 12:48:30;;;;;;;8.70;5.77;;;2.20;99.90;;;;;;4787131;29;20224;-88
2022/11/17 12:51:15;;;;;;;8.67;5.00;;;2.10;99.90;;;;;;4789535;29;20722;-81
2022/11/17 12:54:21;;;;;;;8.03;4.90;;;2.00;99.90;;;;;;4773792;30;20244;-87
2022/11/17 12:57:10;;;;;;;7.53;4.70;;;1.90;99.90;;;;;;4788622;30;20231;-82
2022/11/17 13:00:13;;;;;;;6.90;4.87;;;1.80;99.90;;;;;;4773036;30;20208;-84
2022/11/17 13:03:03;;;;;;;8.10;4.37;;;1.70;99.90;;;;;;4719474;30;20250;-83
2022/11/17 13:05:30;;;;;;;8.67;4.80;;;1.70;99.90;;;;;;4733144;30;20218;-76
2022/11/17 13:08:13;;;;;;;9.33;4.67;;;1.80;99.90;;;;;;4732893;30;20302;-78
2022/11/17 13:10:40;;;;;;;7.57;4.77;;;1.50;99.90;;;;;;4732688;30;20217;-79
2022/11/17 13:13:19;;;;;;;8.30;4.80;;;1.70;99.90;;;;;;4718834;30;20214;-76
2022/11/17 13:15:52;;;;;;;7.40;4.80;;;1.90;99.90;;;;;;4733184;30;20214;-86
2022/11/17 13:18:25;;;;;;;7.70;5.13;;;2.20;99.90;;;;;;4733290;30;20207;-80
2022/11/17 13:21:00;;;;;;;7.23;4.67;;;2.10;99.90;;;;;;4719052;30;20214;-81
2022/11/17 13:23:29;;;;;;;8.37;4.70;;;2.50;99.90;;;;;;4733194;30;20230;-80
2022/11/17 13:26:15;;;;;;;7.87;5.00;;;2.90;99.90;;;;;;4733544;30;20306;-83
2022/11/17 13:28:43;;;;;;;8.77;5.37;;;3.00;99.90;;;;;;4733917;30;20254;-75
2022/11/17 13:31:22;;;;;;;7.67;4.97;;;3.20;99.90;;;;;;4733788;30;20230;-84
2022/11/17 13:34:05;;;;;;;9.77;5.20;;;3.30;99.90;;;;;;4719144;30;20275;-75
2022/11/17 13:36:33;;;;;;;7.57;5.10;;;3.40;99.90;;;;;;4733744;30;20232;-86
2022/11/17 13:39:00;;;;;;;8.37;4.87;;;3.60;99.90;;;;;;4746143;30;20229;-80
2022/11/17 13:41:47;;;;;;;6.87;4.80;;;3.70;99.90;;;;;;4773119;30;20675;-89
2022/11/17 13:44:21;;;;;;;7.03;4.53;;;3.60;99.90;;;;;;4772899;30;20215;-84
2022/11/17 13:46:48;;;;;;;6.53;4.50;;;3.60;99.90;;;;;;4759283;30;20278;-80
2022/11/17 13:49:38;;;;;;;9.30;4.70;;;3.50;99.90;;;;;;4773643;29;20215;-81
2022/11/17 13:52:26;;;;;;;9.73;4.10;;;3.40;99.90;;;;;;4774077;30;20252;-83
2022/11/17 13:55:00;;;;;;;12.67;4.63;;;3.40;99.90;;;;;;4771525;30;20241;-72
2022/11/17 13:57:28;;;;;;;7.03;4.40;;;3.20;99.90;;;;;;4772141;30;20229;-80